Accueil
METAR-TAF:

METAR-TAF

Aéroports :

Aéroport de Toulon-Hyères

Toulon, France

latitude: 43-06N, longitude: 006-09E, altitude: 3 m

Observation

Le bulletin a été fait il y a 31 minutes, à 15:00 UTC
Vent 6 kt de sud-ouest
Température 12°C
Humidité 58%
Pression 1013 hPa
Visibilité 10 km ou plus
pas de nuages en-dessous de 1500 mètres et pas de cumulonimbus.

METAR: LFTH 211500Z AUTO 22006KT CAVOK 12/04 Q1013 NOSIG

Heure: 16:31 (15:31 UTC)

Prévision

Le bulletin a été fait il y a 1 heure et 31 minutes, à 14:00 UTC
Prévision valable du 21 à 15 UTC au 22 à 15 UTC
Vent 6 kt de nord/nord-ouest
Visibilité 10 km ou plus
pas de nuages en-dessous de 1500 mètres et pas de cumulonimbus.

TAF: LFTH 211400Z 2115/2215 33006KT CAVOK

Observations et prévisions météorologiques de plus de 4000 aéroports (messages METAR et TAF).

Les stations disponibles sont représentées par des disques jaunes et rouges sur la carte.

Passer la souris dessus pour voir le nom de la station.

Cliquer dessus pour voir les observations et prévisions météorologiques.

Pour changer de carte: cliquez sur les boutons verts avec une croix noire pour zoomer, sur le bouton vert avec un tiret pour effectuer un zoom arrière, ou sur les flèches vertes pour les cartes adjacentes.


METAR-TAF: